sensor_id;sensor_type;location;lat;lon;timestamp;temperature;humidity
12015;DHT22;6066;48.138;16.402;2023-07-31T00:01:53;19.10;99.90
12015;DHT22;6066;48.138;16.402;2023-07-31T00:04:20;19.10;99.90
12015;DHT22;6066;48.138;16.402;2023-07-31T00:06:46;19.10;99.90
12015;DHT22;6066;48.138;16.402;2023-07-31T00:09:13;19.10;99.90
12015;DHT22;6066;48.138;16.402;2023-07-31T00:11:40;19.20;99.90
12015;DHT22;6066;48.138;16.402;2023-07-31T00:14:08;19.20;99.90
12015;DHT22;6066;48.138;16.402;2023-07-31T00:16:35;19.20;99.90
12015;DHT22;6066;48.138;16.402;2023-07-31T00:19:01;19.10;99.90
12015;DHT22;6066;48.138;16.402;2023-07-31T00:21:28;19.10;99.90
12015;DHT22;6066;48.138;16.402;2023-07-31T00:23:55;19.10;99.90
12015;DHT22;6066;48.138;16.402;2023-07-31T00:26:21;19.10;99.90
12015;DHT22;6066;48.138;16.402;2023-07-31T00:28:48;19.10;99.90
12015;DHT22;6066;48.138;16.402;2023-07-31T00:31:16;19.00;99.90
12015;DHT22;6066;48.138;16.402;2023-07-31T00:33:43;19.00;99.90
12015;DHT22;6066;48.138;16.402;2023-07-31T00:36:09;19.00;99.90
12015;DHT22;6066;48.138;16.402;2023-07-31T00:38:36;19.00;99.90
12015;DHT22;6066;48.138;16.402;2023-07-31T00:41:03;19.00;99.90
12015;DHT22;6066;48.138;16.402;2023-07-31T00:43:29;19.00;99.90
12015;DHT22;6066;48.138;16.402;2023-07-31T00:45:56;19.00;99.90
12015;DHT22;6066;48.138;16.402;2023-07-31T00:48:24;18.90;99.90
12015;DHT22;6066;48.138;16.402;2023-07-31T00:50:51;18.90;99.90
12015;DHT22;6066;48.138;16.402;2023-07-31T00:53:18;18.90;99.90
12015;DHT22;6066;48.138;16.402;2023-07-31T00:55:45;18.80;99.90
12015;DHT22;6066;48.138;16.402;2023-07-31T00:58:11;18.70;99.90
12015;DHT22;6066;48.138;16.402;2023-07-31T01:00:38;18.60;99.90
12015;DHT22;6066;48.138;16.402;2023-07-31T01:03:05;18.50;99.90
12015;DHT22;6066;48.138;16.402;2023-07-31T01:05:43;18.50;99.90
12015;DHT22;6066;48.138;16.402;2023-07-31T01:08:15;18.40;99.90
12015;DHT22;6066;48.138;16.402;2023-07-31T01:10:46;18.30;99.90
12015;DHT22;6066;48.138;16.402;2023-07-31T01:13:15;18.20;99.90
12015;DHT22;6066;48.138;16.402;2023-07-31T01:15:43;18.10;99.90
12015;DHT22;6066;48.138;16.402;2023-07-31T01:18:09;18.00;99.90
12015;DHT22;6066;48.138;16.402;2023-07-31T01:20:38;18.00;99.90
12015;DHT22;6066;48.138;16.402;2023-07-31T01:25:59;17.90;99.90
12015;DHT22;6066;48.138;16.402;2023-07-31T01:28:27;17.80;99.90
12015;DHT22;6066;48.138;16.402;2023-07-31T01:30:55;17.80;99.90
12015;DHT22;6066;48.138;16.402;2023-07-31T01:33:24;17.80;99.90
12015;DHT22;6066;48.138;16.402;2023-07-31T01:35:51;17.80;99.90
12015;DHT22;6066;48.138;16.402;2023-07-31T01:38:20;17.70;99.90
12015;DHT22;6066;48.138;16.402;2023-07-31T01:40:48;17.70;99.90
12015;DHT22;6066;48.138;16.402;2023-07-31T01:43:18;17.70;99.90
12015;DHT22;6066;48.138;16.402;2023-07-31T01:45:45;17.60;99.90
12015;DHT22;6066;48.138;16.402;2023-07-31T01:48:11;17.60;99.90
12015;DHT22;6066;48.138;16.402;2023-07-31T01:50:38;17.70;99.90
12015;DHT22;6066;48.138;16.402;2023-07-31T01:53:05;17.70;99.90
12015;DHT22;6066;48.138;16.402;2023-07-31T01:55:31;17.70;99.90
12015;DHT22;6066;48.138;16.402;2023-07-31T01:57:58;17.80;99.90
12015;DHT22;6066;48.138;16.402;2023-07-31T02:00:26;17.80;99.90
12015;DHT22;6066;48.138;16.402;2023-07-31T02:02:53;17.90;99.90
12015;DHT22;6066;48.138;16.402;2023-07-31T02:05:19;17.90;99.90
12015;DHT22;6066;48.138;16.402;2023-07-31T02:07:46;17.90;99.90
12015;DHT22;6066;48.138;16.402;2023-07-31T02:10:16;17.90;99.90
12015;DHT22;6066;48.138;16.402;2023-07-31T02:12:43;17.90;99.90
12015;DHT22;6066;48.138;16.402;2023-07-31T02:15:09;17.90;99.90
12015;DHT22;6066;48.138;16.402;2023-07-31T02:17:37;17.90;99.90
12015;DHT22;6066;48.138;16.402;2023-07-31T02:20:05;17.80;99.90
12015;DHT22;6066;48.138;16.402;2023-07-31T02:22:31;17.80;99.90
12015;DHT22;6066;48.138;16.402;2023-07-31T02:24:57;17.80;99.90
12015;DHT22;6066;48.138;16.402;2023-07-31T02:27:24;17.70;99.90
12015;DHT22;6066;48.138;16.402;2023-07-31T02:29:52;17.70;99.90
12015;DHT22;6066;48.138;16.402;2023-07-31T02:32:19;17.60;99.90
12015;DHT22;6066;48.138;16.402;2023-07-31T02:34:47;17.60;99.90
12015;DHT22;6066;48.138;16.402;2023-07-31T02:37:14;17.50;99.90
12015;DHT22;6066;48.138;16.402;2023-07-31T02:39:40;17.50;99.90
12015;DHT22;6066;48.138;16.402;2023-07-31T02:42:07;17.40;99.90
12015;DHT22;6066;48.138;16.402;2023-07-31T02:44:34;17.40;99.90
12015;DHT22;6066;48.138;16.402;2023-07-31T02:47:00;17.40;99.90
12015;DHT22;6066;48.138;16.402;2023-07-31T02:49:28;17.40;99.90
12015;DHT22;6066;48.138;16.402;2023-07-31T02:51:56;17.50;99.90
12015;DHT22;6066;48.138;16.402;2023-07-31T02:54:23;17.50;99.90
12015;DHT22;6066;48.138;16.402;2023-07-31T02:56:49;17.50;99.90
12015;DHT22;6066;48.138;16.402;2023-07-31T02:59:16;17.50;99.90
12015;DHT22;6066;48.138;16.402;2023-07-31T03:01:43;17.50;99.90
12015;DHT22;6066;48.138;16.402;2023-07-31T03:04:10;17.60;99.90
12015;DHT22;6066;48.138;16.402;2023-07-31T03:06:37;17.60;99.90
12015;DHT22;6066;48.138;16.402;2023-07-31T03:09:05;17.70;99.90
12015;DHT22;6066;48.138;16.402;2023-07-31T03:11:31;17.80;99.90
12015;DHT22;6066;48.138;16.402;2023-07-31T03:13:58;17.80;99.90
12015;DHT22;6066;48.138;16.402;2023-07-31T03:16:25;17.80;99.90
12015;DHT22;6066;48.138;16.402;2023-07-31T03:18:51;17.90;99.90
12015;DHT22;6066;48.138;16.402;2023-07-31T03:21:18;17.90;99.90
12015;DHT22;6066;48.138;16.402;2023-07-31T03:23:45;17.80;99.90
12015;DHT22;6066;48.138;16.402;2023-07-31T03:26:13;17.80;99.90
12015;DHT22;6066;48.138;16.402;2023-07-31T03:28:39;17.90;99.90
12015;DHT22;6066;48.138;16.402;2023-07-31T03:31:06;17.90;99.90
12015;DHT22;6066;48.138;16.402;2023-07-31T03:33:33;17.90;99.90
12015;DHT22;6066;48.138;16.402;2023-07-31T03:36:00;17.90;99.90
12015;DHT22;6066;48.138;16.402;2023-07-31T03:38:27;17.90;99.90
12015;DHT22;6066;48.138;16.402;2023-07-31T03:40:54;17.90;99.90
12015;DHT22;6066;48.138;16.402;2023-07-31T03:43:22;17.90;99.90
12015;DHT22;6066;48.138;16.402;2023-07-31T03:45:48;17.90;99.90
12015;DHT22;6066;48.138;16.402;2023-07-31T03:48:15;17.90;99.90
12015;DHT22;6066;48.138;16.402;2023-07-31T03:50:42;17.90;99.90
12015;DHT22;6066;48.138;16.402;2023-07-31T03:53:08;17.90;99.90
12015;DHT22;6066;48.138;16.402;2023-07-31T03:55:35;18.00;99.90
12015;DHT22;6066;48.138;16.402;2023-07-31T03:58:02;18.00;99.90
12015;DHT22;6066;48.138;16.402;2023-07-31T04:00:30;18.00;99.90
12015;DHT22;6066;48.138;16.402;2023-07-31T04:02:57;18.00;99.90
12015;DHT22;6066;48.138;16.402;2023-07-31T04:05:24;18.00;99.90
12015;DHT22;6066;48.138;16.402;2023-07-31T04:07:50;18.10;99.90
12015;DHT22;6066;48.138;16.402;2023-07-31T04:10:17;18.10;99.90
12015;DHT22;6066;48.138;16.402;2023-07-31T04:12:44;18.10;99.90
12015;DHT22;6066;48.138;16.402;2023-07-31T04:15:10;18.10;99.90
12015;DHT22;6066;48.138;16.402;2023-07-31T04:17:38;18.20;99.90
12015;DHT22;6066;48.138;16.402;2023-07-31T04:20:05;18.30;99.90
12015;DHT22;6066;48.138;16.402;2023-07-31T04:22:32;18.30;99.90
12015;DHT22;6066;48.138;16.402;2023-07-31T04:24:59;18.30;99.90
12015;DHT22;6066;48.138;16.402;2023-07-31T04:27:25;18.40;99.90
12015;DHT22;6066;48.138;16.402;2023-07-31T04:29:52;18.40;99.90
12015;DHT22;6066;48.138;16.402;2023-07-31T04:32:19;18.40;99.90
12015;DHT22;6066;48.138;16.402;2023-07-31T04:34:47;18.50;99.90
12015;DHT22;6066;48.138;16.402;2023-07-31T04:37:14;18.50;99.90
12015;DHT22;6066;48.138;16.402;2023-07-31T04:39:41;18.60;99.90
12015;DHT22;6066;48.138;16.402;2023-07-31T04:42:07;18.60;99.90
12015;DHT22;6066;48.138;16.402;2023-07-31T04:44:34;18.70;99.90
12015;DHT22;6066;48.138;16.402;2023-07-31T04:47:01;18.70;99.90
12015;DHT22;6066;48.138;16.402;2023-07-31T04:49:28;18.70;99.90
12015;DHT22;6066;48.138;16.402;2023-07-31T04:51:56;18.80;99.90
12015;DHT22;6066;48.138;16.402;2023-07-31T04:54:22;18.80;99.90
12015;DHT22;6066;48.138;16.402;2023-07-31T04:56:49;18.90;99.90
12015;DHT22;6066;48.138;16.402;2023-07-31T04:59:16;18.90;99.90
12015;DHT22;6066;48.138;16.402;2023-07-31T05:01:42;19.00;99.90
12015;DHT22;6066;48.138;16.402;2023-07-31T05:04:12;19.00;99.90
12015;DHT22;6066;48.138;16.402;2023-07-31T05:06:38;19.00;99.90
12015;DHT22;6066;48.138;16.402;2023-07-31T05:09:06;19.00;99.90
12015;DHT22;6066;48.138;16.402;2023-07-31T05:11:34;19.00;99.90
12015;DHT22;6066;48.138;16.402;2023-07-31T05:14:01;19.00;99.90
12015;DHT22;6066;48.138;16.402;2023-07-31T05:16:28;19.10;99.90
12015;DHT22;6066;48.138;16.402;2023-07-31T05:18:54;19.10;99.90
12015;DHT22;6066;48.138;16.402;2023-07-31T05:21:21;19.20;99.90
12015;DHT22;6066;48.138;16.402;2023-07-31T05:23:47;19.20;99.90
12015;DHT22;6066;48.138;16.402;2023-07-31T05:26:15;19.30;99.90
12015;DHT22;6066;48.138;16.402;2023-07-31T05:28:43;19.40;99.90
12015;DHT22;6066;48.138;16.402;2023-07-31T05:31:09;19.40;99.90
12015;DHT22;6066;48.138;16.402;2023-07-31T05:33:36;19.40;99.90
12015;DHT22;6066;48.138;16.402;2023-07-31T05:36:03;19.40;99.90
12015;DHT22;6066;48.138;16.402;2023-07-31T05:38:29;19.40;99.90
12015;DHT22;6066;48.138;16.402;2023-07-31T05:40:56;19.50;99.90
12015;DHT22;6066;48.138;16.402;2023-07-31T05:43:24;19.40;99.90
12015;DHT22;6066;48.138;16.402;2023-07-31T05:45:51;19.50;99.90
12015;DHT22;6066;48.138;16.402;2023-07-31T05:48:17;19.50;99.90
12015;DHT22;6066;48.138;16.402;2023-07-31T05:50:44;19.50;99.90
12015;DHT22;6066;48.138;16.402;2023-07-31T05:53:11;19.60;99.90
12015;DHT22;6066;48.138;16.402;2023-07-31T05:55:37;19.60;99.90
12015;DHT22;6066;48.138;16.402;2023-07-31T05:58:04;19.70;99.90
12015;DHT22;6066;48.138;16.402;2023-07-31T06:00:32;19.80;99.90
12015;DHT22;6066;48.138;16.402;2023-07-31T06:02:59;19.90;99.90
12015;DHT22;6066;48.138;16.402;2023-07-31T06:05:25;19.90;99.90
12015;DHT22;6066;48.138;16.402;2023-07-31T06:07:54;20.00;99.90
12015;DHT22;6066;48.138;16.402;2023-07-31T06:10:20;20.00;99.90
12015;DHT22;6066;48.138;16.402;2023-07-31T06:12:47;20.10;99.90
12015;DHT22;6066;48.138;16.402;2023-07-31T06:15:14;20.20;99.90
12015;DHT22;6066;48.138;16.402;2023-07-31T06:17:42;20.30;99.90
12015;DHT22;6066;48.138;16.402;2023-07-31T06:20:09;20.40;99.90
12015;DHT22;6066;48.138;16.402;2023-07-31T06:22:36;20.40;99.90
12015;DHT22;6066;48.138;16.402;2023-07-31T06:25:03;20.50;99.90
12015;DHT22;6066;48.138;16.402;2023-07-31T06:27:29;20.60;99.90
12015;DHT22;6066;48.138;16.402;2023-07-31T06:29:56;20.60;99.90
12015;DHT22;6066;48.138;16.402;2023-07-31T06:32:24;20.80;99.90
12015;DHT22;6066;48.138;16.402;2023-07-31T06:34:52;20.80;99.90
12015;DHT22;6066;48.138;16.402;2023-07-31T06:37:19;20.90;99.90
12015;DHT22;6066;48.138;16.402;2023-07-31T06:39:46;20.90;99.90
12015;DHT22;6066;48.138;16.402;2023-07-31T06:42:12;20.80;99.90
12015;DHT22;6066;48.138;16.402;2023-07-31T06:44:39;20.80;99.90
12015;DHT22;6066;48.138;16.402;2023-07-31T06:47:07;20.80;99.90
12015;DHT22;6066;48.138;16.402;2023-07-31T06:49:34;20.70;99.90
12015;DHT22;6066;48.138;16.402;2023-07-31T06:52:02;20.70;99.90
12015;DHT22;6066;48.138;16.402;2023-07-31T06:54:28;20.70;99.90
12015;DHT22;6066;48.138;16.402;2023-07-31T06:56:55;20.70;99.90
12015;DHT22;6066;48.138;16.402;2023-07-31T06:59:22;20.80;99.90
12015;DHT22;6066;48.138;16.402;2023-07-31T07:01:48;20.90;99.90
12015;DHT22;6066;48.138;16.402;2023-07-31T07:04:15;20.90;99.90
12015;DHT22;6066;48.138;16.402;2023-07-31T07:06:42;20.90;99.90
12015;DHT22;6066;48.138;16.402;2023-07-31T07:09:10;21.00;99.90
12015;DHT22;6066;48.138;16.402;2023-07-31T07:11:36;21.10;99.90
12015;DHT22;6066;48.138;16.402;2023-07-31T07:14:03;21.20;99.90
12015;DHT22;6066;48.138;16.402;2023-07-31T07:16:30;21.30;99.90
12015;DHT22;6066;48.138;16.402;2023-07-31T07:18:57;21.30;99.90
12015;DHT22;6066;48.138;16.402;2023-07-31T07:21:23;21.40;99.90
12015;DHT22;6066;48.138;16.402;2023-07-31T07:23:50;21.50;99.90
12015;DHT22;6066;48.138;16.402;2023-07-31T07:26:21;21.60;99.90
12015;DHT22;6066;48.138;16.402;2023-07-31T07:28:47;21.70;99.90
12015;DHT22;6066;48.138;16.402;2023-07-31T07:31:14;21.80;99.90
12015;DHT22;6066;48.138;16.402;2023-07-31T07:33:41;21.90;99.90
12015;DHT22;6066;48.138;16.402;2023-07-31T07:36:07;22.00;99.90
12015;DHT22;6066;48.138;16.402;2023-07-31T07:38:35;22.10;99.90
12015;DHT22;6066;48.138;16.402;2023-07-31T07:41:02;22.10;99.90
12015;DHT22;6066;48.138;16.402;2023-07-31T07:43:30;22.20;99.90
12015;DHT22;6066;48.138;16.402;2023-07-31T07:45:56;22.20;99.90
12015;DHT22;6066;48.138;16.402;2023-07-31T07:48:23;22.30;99.90
12015;DHT22;6066;48.138;16.402;2023-07-31T07:50:50;22.40;99.90
12015;DHT22;6066;48.138;16.402;2023-07-31T07:53:17;22.40;99.90
12015;DHT22;6066;48.138;16.402;2023-07-31T07:55:43;22.40;99.90
12015;DHT22;6066;48.138;16.402;2023-07-31T07:58:10;22.40;99.90
12015;DHT22;6066;48.138;16.402;2023-07-31T08:00:38;22.50;99.90
12015;DHT22;6066;48.138;16.402;2023-07-31T08:03:05;22.50;99.90
12015;DHT22;6066;48.138;16.402;2023-07-31T08:05:32;22.60;99.90
12015;DHT22;6066;48.138;16.402;2023-07-31T08:07:59;22.60;99.90
12015;DHT22;6066;48.138;16.402;2023-07-31T08:10:26;22.70;99.90
12015;DHT22;6066;48.138;16.402;2023-07-31T08:12:52;22.80;99.90
12015;DHT22;6066;48.138;16.402;2023-07-31T08:15:19;22.80;99.90
12015;DHT22;6066;48.138;16.402;2023-07-31T08:17:47;22.90;99.90
12015;DHT22;6066;48.138;16.402;2023-07-31T08:20:14;22.90;99.90
12015;DHT22;6066;48.138;16.402;2023-07-31T08:22:42;22.80;99.90
12015;DHT22;6066;48.138;16.402;2023-07-31T08:25:09;22.90;99.90
12015;DHT22;6066;48.138;16.402;2023-07-31T08:27:36;22.90;99.90
12015;DHT22;6066;48.138;16.402;2023-07-31T08:30:02;22.90;99.90
12015;DHT22;6066;48.138;16.402;2023-07-31T08:32:29;22.90;99.90
12015;DHT22;6066;48.138;16.402;2023-07-31T08:34:57;22.90;99.90
12015;DHT22;6066;48.138;16.402;2023-07-31T08:37:24;22.90;99.90
12015;DHT22;6066;48.138;16.402;2023-07-31T08:39:51;23.00;99.90
12015;DHT22;6066;48.138;16.402;2023-07-31T08:42:18;23.00;99.90
12015;DHT22;6066;48.138;16.402;2023-07-31T08:44:45;23.10;99.90
12015;DHT22;6066;48.138;16.402;2023-07-31T08:47:12;23.10;99.90
12015;DHT22;6066;48.138;16.402;2023-07-31T08:49:39;23.10;99.90
12015;DHT22;6066;48.138;16.402;2023-07-31T08:52:08;23.10;99.90
12015;DHT22;6066;48.138;16.402;2023-07-31T08:54:36;23.20;99.90
12015;DHT22;6066;48.138;16.402;2023-07-31T08:57:05;23.30;99.90
12015;DHT22;6066;48.138;16.402;2023-07-31T08:59:34;23.40;99.90
12015;DHT22;6066;48.138;16.402;2023-07-31T09:02:03;23.50;99.90
12015;DHT22;6066;48.138;16.402;2023-07-31T09:04:31;23.50;99.90
12015;DHT22;6066;48.138;16.402;2023-07-31T09:07:02;23.70;99.90
12015;DHT22;6066;48.138;16.402;2023-07-31T09:09:31;23.70;99.90
12015;DHT22;6066;48.138;16.402;2023-07-31T09:11:57;23.70;99.90
12015;DHT22;6066;48.138;16.402;2023-07-31T09:14:24;23.80;99.90
12015;DHT22;6066;48.138;16.402;2023-07-31T09:16:52;24.00;99.90
12015;DHT22;6066;48.138;16.402;2023-07-31T09:19:24;24.00;99.90
12015;DHT22;6066;48.138;16.402;2023-07-31T09:21:51;24.00;99.90
12015;DHT22;6066;48.138;16.402;2023-07-31T09:24:24;24.10;99.90
12015;DHT22;6066;48.138;16.402;2023-07-31T09:26:52;24.20;99.90
12015;DHT22;6066;48.138;16.402;2023-07-31T09:29:19;24.30;99.90
12015;DHT22;6066;48.138;16.402;2023-07-31T09:31:46;24.30;99.90
12015;DHT22;6066;48.138;16.402;2023-07-31T09:34:13;24.40;99.90
12015;DHT22;6066;48.138;16.402;2023-07-31T09:36:43;24.50;99.90
12015;DHT22;6066;48.138;16.402;2023-07-31T09:39:10;24.50;99.90
12015;DHT22;6066;48.138;16.402;2023-07-31T09:41:37;24.60;99.90
12015;DHT22;6066;48.138;16.402;2023-07-31T09:44:05;24.70;99.90
12015;DHT22;6066;48.138;16.402;2023-07-31T09:46:33;24.80;99.90
12015;DHT22;6066;48.138;16.402;2023-07-31T09:49:07;25.00;99.90
12015;DHT22;6066;48.138;16.402;2023-07-31T09:51:35;25.10;99.90
12015;DHT22;6066;48.138;16.402;2023-07-31T09:54:05;25.20;99.90
12015;DHT22;6066;48.138;16.402;2023-07-31T09:56:35;25.30;99.90
12015;DHT22;6066;48.138;16.402;2023-07-31T09:59:02;25.30;99.90
12015;DHT22;6066;48.138;16.402;2023-07-31T10:01:31;25.30;99.90
12015;DHT22;6066;48.138;16.402;2023-07-31T10:03:58;25.30;99.90
12015;DHT22;6066;48.138;16.402;2023-07-31T10:06:25;25.30;99.90
12015;DHT22;6066;48.138;16.402;2023-07-31T10:08:52;25.30;99.90
12015;DHT22;6066;48.138;16.402;2023-07-31T10:11:20;25.40;99.90
12015;DHT22;6066;48.138;16.402;2023-07-31T10:13:49;25.50;99.90
12015;DHT22;6066;48.138;16.402;2023-07-31T10:16:16;25.60;99.90
12015;DHT22;6066;48.138;16.402;2023-07-31T10:18:44;25.60;99.90
12015;DHT22;6066;48.138;16.402;2023-07-31T10:21:11;25.40;99.90
12015;DHT22;6066;48.138;16.402;2023-07-31T10:23:38;25.40;99.90
12015;DHT22;6066;48.138;16.402;2023-07-31T10:26:05;25.50;99.90
12015;DHT22;6066;48.138;16.402;2023-07-31T10:28:34;25.70;99.90
12015;DHT22;6066;48.138;16.402;2023-07-31T10:31:01;25.80;99.90
12015;DHT22;6066;48.138;16.402;2023-07-31T10:33:28;25.80;99.90
12015;DHT22;6066;48.138;16.402;2023-07-31T10:38:37;25.70;99.90
12015;DHT22;6066;48.138;16.402;2023-07-31T10:41:07;25.80;99.90
12015;DHT22;6066;48.138;16.402;2023-07-31T10:43:34;25.90;99.90
12015;DHT22;6066;48.138;16.402;2023-07-31T10:46:01;25.90;99.90
12015;DHT22;6066;48.138;16.402;2023-07-31T10:48:32;26.10;99.90
12015;DHT22;6066;48.138;16.402;2023-07-31T10:50:59;26.20;99.90
12015;DHT22;6066;48.138;16.402;2023-07-31T10:53:28;26.50;99.90
12015;DHT22;6066;48.138;16.402;2023-07-31T10:55:59;26.50;99.90
12015;DHT22;6066;48.138;16.402;2023-07-31T10:58:25;26.40;99.90
12015;DHT22;6066;48.138;16.402;2023-07-31T11:00:54;26.40;99.90
12015;DHT22;6066;48.138;16.402;2023-07-31T11:03:24;26.50;99.90
12015;DHT22;6066;48.138;16.402;2023-07-31T11:05:51;26.50;99.90
12015;DHT22;6066;48.138;16.402;2023-07-31T11:08:21;26.60;99.90
12015;DHT22;6066;48.138;16.402;2023-07-31T11:10:48;26.60;99.90
12015;DHT22;6066;48.138;16.402;2023-07-31T11:13:17;26.60;99.90
12015;DHT22;6066;48.138;16.402;2023-07-31T11:15:43;26.60;99.90
12015;DHT22;6066;48.138;16.402;2023-07-31T11:18:10;26.60;99.90
12015;DHT22;6066;48.138;16.402;2023-07-31T11:20:37;26.70;99.90
12015;DHT22;6066;48.138;16.402;2023-07-31T11:23:05;26.80;99.90
12015;DHT22;6066;48.138;16.402;2023-07-31T11:25:33;27.00;99.90
12015;DHT22;6066;48.138;16.402;2023-07-31T11:28:02;27.00;99.90
12015;DHT22;6066;48.138;16.402;2023-07-31T11:30:30;27.00;99.90
12015;DHT22;6066;48.138;16.402;2023-07-31T11:32:57;26.80;99.90
12015;DHT22;6066;48.138;16.402;2023-07-31T11:35:24;26.80;99.90
12015;DHT22;6066;48.138;16.402;2023-07-31T11:37:50;26.80;99.90
12015;DHT22;6066;48.138;16.402;2023-07-31T11:40:17;26.90;99.80
12015;DHT22;6066;48.138;16.402;2023-07-31T11:42:45;27.00;99.90
12015;DHT22;6066;48.138;16.402;2023-07-31T11:45:12;27.20;98.60
12015;DHT22;6066;48.138;16.402;2023-07-31T11:47:40;27.30;97.70
12015;DHT22;6066;48.138;16.402;2023-07-31T11:50:09;27.20;98.60
12015;DHT22;6066;48.138;16.402;2023-07-31T11:52:37;27.10;98.60
12015;DHT22;6066;48.138;16.402;2023-07-31T11:55:04;27.20;99.10
12015;DHT22;6066;48.138;16.402;2023-07-31T11:57:32;27.40;97.90
12015;DHT22;6066;48.138;16.402;2023-07-31T11:59:59;27.60;98.20
12015;DHT22;6066;48.138;16.402;2023-07-31T12:02:26;27.70;98.90
12015;DHT22;6066;48.138;16.402;2023-07-31T12:04:54;27.80;99.10
12015;DHT22;6066;48.138;16.402;2023-07-31T12:07:20;27.80;99.20
12015;DHT22;6066;48.138;16.402;2023-07-31T12:09:51;27.90;98.70
12015;DHT22;6066;48.138;16.402;2023-07-31T12:12:19;27.90;98.80
12015;DHT22;6066;48.138;16.402;2023-07-31T12:14:46;27.90;98.20
12015;DHT22;6066;48.138;16.402;2023-07-31T12:17:12;27.80;98.80
12015;DHT22;6066;48.138;16.402;2023-07-31T12:19:40;27.80;99.90
12015;DHT22;6066;48.138;16.402;2023-07-31T12:22:12;27.80;99.30
12015;DHT22;6066;48.138;16.402;2023-07-31T12:24:39;27.70;99.80
12015;DHT22;6066;48.138;16.402;2023-07-31T12:27:09;27.70;99.30
12015;DHT22;6066;48.138;16.402;2023-07-31T12:29:36;27.50;97.30
12015;DHT22;6066;48.138;16.402;2023-07-31T12:32:03;27.10;97.30
12015;DHT22;6066;48.138;16.402;2023-07-31T12:34:31;27.00;98.30
12015;DHT22;6066;48.138;16.402;2023-07-31T12:36:57;27.00;99.00
12015;DHT22;6066;48.138;16.402;2023-07-31T12:39:26;27.10;99.50
12015;DHT22;6066;48.138;16.402;2023-07-31T12:41:52;27.40;99.90
12015;DHT22;6066;48.138;16.402;2023-07-31T12:44:19;27.70;99.80
12015;DHT22;6066;48.138;16.402;2023-07-31T12:46:46;27.90;98.80
12015;DHT22;6066;48.138;16.402;2023-07-31T12:49:13;28.00;99.20
12015;DHT22;6066;48.138;16.402;2023-07-31T12:51:39;28.20;99.30
12015;DHT22;6066;48.138;16.402;2023-07-31T12:54:06;28.30;99.60
12015;DHT22;6066;48.138;16.402;2023-07-31T12:56:34;28.40;99.10
12015;DHT22;6066;48.138;16.402;2023-07-31T12:59:01;28.40;99.20
12015;DHT22;6066;48.138;16.402;2023-07-31T13:01:27;28.30;98.60
12015;DHT22;6066;48.138;16.402;2023-07-31T13:03:54;28.30;99.90
12015;DHT22;6066;48.138;16.402;2023-07-31T13:06:22;28.30;98.00
12015;DHT22;6066;48.138;16.402;2023-07-31T13:08:49;28.30;98.20
12015;DHT22;6066;48.138;16.402;2023-07-31T13:11:16;28.40;98.40
12015;DHT22;6066;48.138;16.402;2023-07-31T13:13:44;28.40;98.60
12015;DHT22;6066;48.138;16.402;2023-07-31T13:16:10;28.50;98.00
12015;DHT22;6066;48.138;16.402;2023-07-31T13:18:37;28.60;97.40
12015;DHT22;6066;48.138;16.402;2023-07-31T13:21:04;28.80;97.10
12015;DHT22;6066;48.138;16.402;2023-07-31T13:23:30;28.80;96.80
12015;DHT22;6066;48.138;16.402;2023-07-31T13:25:57;28.70;98.00
12015;DHT22;6066;48.138;16.402;2023-07-31T13:28:24;28.60;96.70
12015;DHT22;6066;48.138;16.402;2023-07-31T13:30:52;28.70;98.10
12015;DHT22;6066;48.138;16.402;2023-07-31T13:33:18;28.90;97.30
12015;DHT22;6066;48.138;16.402;2023-07-31T13:35:45;29.10;95.90
12015;DHT22;6066;48.138;16.402;2023-07-31T13:38:12;29.10;95.30
12015;DHT22;6066;48.138;16.402;2023-07-31T13:40:38;29.00;96.50
12015;DHT22;6066;48.138;16.402;2023-07-31T13:43:05;28.90;95.50
12015;DHT22;6066;48.138;16.402;2023-07-31T13:45:32;28.80;96.20
12015;DHT22;6066;48.138;16.402;2023-07-31T13:48:00;28.80;96.90
12015;DHT22;6066;48.138;16.402;2023-07-31T13:50:26;28.80;95.90
12015;DHT22;6066;48.138;16.402;2023-07-31T13:52:53;28.80;95.90
12015;DHT22;6066;48.138;16.402;2023-07-31T13:55:20;28.80;95.10
12015;DHT22;6066;48.138;16.402;2023-07-31T13:57:47;28.50;95.90
12015;DHT22;6066;48.138;16.402;2023-07-31T14:00:14;28.30;96.20
12015;DHT22;6066;48.138;16.402;2023-07-31T14:02:40;28.30;97.50
12015;DHT22;6066;48.138;16.402;2023-07-31T14:05:09;28.40;96.80
12015;DHT22;6066;48.138;16.402;2023-07-31T14:07:35;28.50;95.90
12015;DHT22;6066;48.138;16.402;2023-07-31T14:10:02;28.40;96.20
12015;DHT22;6066;48.138;16.402;2023-07-31T14:12:29;28.40;95.50
12015;DHT22;6066;48.138;16.402;2023-07-31T14:14:57;28.30;96.30
12015;DHT22;6066;48.138;16.402;2023-07-31T14:17:23;28.30;96.50
12015;DHT22;6066;48.138;16.402;2023-07-31T14:19:50;28.20;96.00
12015;DHT22;6066;48.138;16.402;2023-07-31T14:22:28;28.00;95.80
12015;DHT22;6066;48.138;16.402;2023-07-31T14:24:55;27.80;95.80
12015;DHT22;6066;48.138;16.402;2023-07-31T14:27:21;27.70;95.80
12015;DHT22;6066;48.138;16.402;2023-07-31T14:29:48;27.70;96.70
12015;DHT22;6066;48.138;16.402;2023-07-31T14:32:15;27.70;95.40
12015;DHT22;6066;48.138;16.402;2023-07-31T14:34:41;27.50;96.20
12015;DHT22;6066;48.138;16.402;2023-07-31T14:37:08;27.30;98.00
12015;DHT22;6066;48.138;16.402;2023-07-31T14:39:36;27.10;97.00
12015;DHT22;6066;48.138;16.402;2023-07-31T14:42:03;27.00;96.80
12015;DHT22;6066;48.138;16.402;2023-07-31T14:44:30;27.00;98.10
12015;DHT22;6066;48.138;16.402;2023-07-31T14:46:57;27.10;96.50
12015;DHT22;6066;48.138;16.402;2023-07-31T14:49:23;27.20;97.40
12015;DHT22;6066;48.138;16.402;2023-07-31T14:51:50;27.20;97.60
12015;DHT22;6066;48.138;16.402;2023-07-31T14:54:17;27.40;95.90
12015;DHT22;6066;48.138;16.402;2023-07-31T14:56:45;27.50;95.80
12015;DHT22;6066;48.138;16.402;2023-07-31T14:59:11;27.60;97.00
12015;DHT22;6066;48.138;16.402;2023-07-31T15:01:38;27.70;96.20
12015;DHT22;6066;48.138;16.402;2023-07-31T15:04:05;27.80;96.70
12015;DHT22;6066;48.138;16.402;2023-07-31T15:06:34;27.90;96.80
12015;DHT22;6066;48.138;16.402;2023-07-31T15:09:00;28.00;96.30
12015;DHT22;6066;48.138;16.402;2023-07-31T15:11:27;28.10;95.60
12015;DHT22;6066;48.138;16.402;2023-07-31T15:13:55;28.20;95.30
12015;DHT22;6066;48.138;16.402;2023-07-31T15:16:22;28.20;95.30
12015;DHT22;6066;48.138;16.402;2023-07-31T15:18:48;28.20;95.80
12015;DHT22;6066;48.138;16.402;2023-07-31T15:21:15;28.30;96.20
12015;DHT22;6066;48.138;16.402;2023-07-31T15:23:42;28.30;96.90
12015;DHT22;6066;48.138;16.402;2023-07-31T15:26:08;28.40;96.00
12015;DHT22;6066;48.138;16.402;2023-07-31T15:28:37;28.30;95.30
12015;DHT22;6066;48.138;16.402;2023-07-31T15:31:05;28.20;95.70
12015;DHT22;6066;48.138;16.402;2023-07-31T15:33:32;28.20;96.90
12015;DHT22;6066;48.138;16.402;2023-07-31T15:35:58;28.30;97.50